Time;durP1;ratioP1;P1;durP2;ratioP2;P2;SDS_P1;SDS_P2;PMS_P1;PMS_P2;Temp;Humidity;BMP_temperature;BMP_pressure;BME280_temperature;BME280_humidity;BME280_pressure;Samples;Min_cycle;Max_cycle;Signal;HPM_P1;HPM_P2
2021/03/13 00:00:29;;;;;;;19.40;2.83;;;;;;;10.49;68.20;100221.69;5088741;28;20045;-69
2021/03/13 00:02:58;;;;;;;24.25;3.50;;;;;;;10.56;68.25;100199.97;5062437;28;20041;-70
2021/03/13 00:05:35;;;;;;;21.70;3.63;;;;;;;10.44;68.62;100188.81;5095839;28;20036;-70
2021/03/13 00:12:26;;;;;;;25.45;3.67;;;;;;;10.42;69.22;100159.97;5095434;28;20054;-72
2021/03/13 00:14:54;;;;;;;16.00;3.10;;;;;;;10.43;69.36;100145.06;5079318;28;20051;-72
2021/03/13 00:17:24;;;;;;;22.02;3.10;;;;;;;10.28;69.64;100140.88;5090594;28;20053;-69
2021/03/13 00:19:51;;;;;;;21.38;3.35;;;;;;;10.56;68.82;100139.41;5095284;28;20040;-72
2021/03/13 00:27:03;;;;;;;19.73;3.63;;;;;;;10.52;69.30;100123.84;5099524;28;20033;-68
2021/03/13 00:29:33;;;;;;;17.20;3.83;;;;;;;10.52;69.69;100112.81;5048696;28;20051;-67
2021/03/13 00:32:18;;;;;;;24.25;4.78;;;;;;;10.37;69.93;100111.41;5092002;28;20269;-71
2021/03/13 00:34:46;;;;;;;20.17;3.53;;;;;;;10.37;70.47;100105.91;5082466;28;20044;-71
2021/03/13 00:37:14;;;;;;;21.55;3.60;;;;;;;10.57;69.67;100104.38;5099539;28;20048;-72
2021/03/13 00:39:44;;;;;;;20.38;4.18;;;;;;;10.56;69.90;100100.84;5083104;28;20044;-71
2021/03/13 00:42:11;;;;;;;23.58;3.95;;;;;;;10.42;69.82;100105.72;5109589;28;20036;-70
2021/03/13 00:44:38;;;;;;;22.00;3.38;;;;;;;10.37;69.64;100088.56;5120171;28;20032;-71
2021/03/13 00:47:08;;;;;;;23.52;3.72;;;;;;;10.53;69.16;100093.22;5085704;28;20046;-71
2021/03/13 00:49:38;;;;;;;20.05;3.20;;;;;;;10.49;69.20;100080.44;5102439;28;20030;-72
2021/03/13 00:52:08;;;;;;;18.85;4.35;;;;;;;10.65;68.54;100081.53;5100469;28;20032;-70
2021/03/13 00:54:35;;;;;;;21.98;3.63;;;;;;;10.69;68.12;100075.03;5118970;28;20032;-71
2021/03/13 00:57:03;;;;;;;20.48;3.50;;;;;;;10.60;68.26;100054.97;5091741;28;20410;-71
2021/03/13 00:59:29;;;;;;;17.88;3.83;;;;;;;10.74;68.20;100058.31;5094113;28;20048;-72
2021/03/13 01:01:57;;;;;;;23.83;3.38;;;;;;;10.56;68.36;100059.53;5075873;28;20048;-72
2021/03/13 01:04:30;;;;;;;24.25;3.95;;;;;;;10.49;68.84;100058.41;5077222;28;20051;-71
2021/03/13 01:07:04;;;;;;;15.50;3.10;;;;;;;10.64;68.44;100047.66;5077280;28;20044;-72
2021/03/13 01:13:57;;;;;;;17.17;3.40;;;;;;;10.66;69.31;100034.38;5093982;28;20055;-71
2021/03/13 01:16:35;;;;;;;23.17;3.10;;;;;;;10.79;69.22;100022.31;5076690;28;20052;-72
2021/03/13 01:19:02;;;;;;;18.67;3.00;;;;;;;10.67;69.64;100024.19;5059344;28;20048;-72
2021/03/13 01:21:33;;;;;;;23.23;3.17;;;;;;;10.23;71.39;100000.69;5074837;28;20524;-69
2021/03/13 01:24:11;;;;;;;20.73;3.28;;;;;;;10.48;70.83;100010.78;5075349;28;20044;-69
2021/03/13 01:26:41;;;;;;;20.17;3.10;;;;;;;10.64;69.34;100000.03;5093682;28;20048;-69
2021/03/13 01:29:11;;;;;;;16.92;3.55;;;;;;;10.64;69.48;100020.13;5074827;28;20052;-71
2021/03/13 01:31:49;;;;;;;23.02;3.80;;;;;;;10.46;69.61;100013.06;5093898;28;20036;-71
2021/03/13 01:34:25;;;;;;;18.98;3.10;;;;;;;10.56;69.71;100006.41;5093663;28;20052;-69
2021/03/13 01:37:01;;;;;;;21.35;3.22;;;;;;;10.53;69.49;100002.34;5075457;28;20055;-71
2021/03/13 01:39:32;;;;;;;17.08;3.53;;;;;;;10.53;69.64;99991.34;5093495;28;20062;-69
2021/03/13 01:42:01;;;;;;;23.15;4.32;;;;;;;10.71;68.67;99975.53;5092756;28;20052;-72
2021/03/13 01:44:47;;;;;;;19.27;3.97;;;;;;;10.62;69.01;99980.28;5085588;28;20059;-69
2021/03/13 01:47:28;;;;;;;20.33;3.05;;;;;;;10.49;69.23;99970.31;5107313;28;20130;-71
2021/03/13 01:50:00;;;;;;;18.40;3.03;;;;;;;10.44;69.22;99965.81;5074392;28;20494;-71
2021/03/13 01:52:38;;;;;;;22.70;3.78;;;;;;;10.30;69.85;99937.69;5092415;28;20063;-69
2021/03/13 01:55:07;;;;;;;16.63;2.78;;;;;;;10.18;70.33;99934.81;5075254;28;20075;-71
2021/03/13 01:57:35;;;;;;;20.05;4.32;;;;;;;10.50;69.42;99939.69;5075237;28;20058;-72
2021/03/13 02:00:18;;;;;;;16.40;3.25;;;;;;;10.42;69.21;99948.81;5059179;28;20052;-69
2021/03/13 02:02:52;;;;;;;20.73;2.67;;;;;;;10.53;68.55;99925.25;5093362;28;20040;-72
2021/03/13 02:05:28;;;;;;;20.58;3.20;;;;;;;10.34;69.50;99921.31;5065112;28;20047;-69
2021/03/13 02:12:42;;;;;;;20.90;3.22;;;;;;;10.27;69.30;99913.56;5092872;28;20058;-69
2021/03/13 02:15:34;;;;;;;21.55;3.42;;;;;;;10.37;69.08;99904.94;5075893;28;20048;-73
2021/03/13 02:18:10;;;;;;;19.42;3.17;;;;;;;10.46;68.78;99897.44;5059448;28;20048;-72
2021/03/13 02:21:19;;;;;;;20.50;3.67;;;;;;;10.57;68.51;99890.41;5096638;28;20052;-72
2021/03/13 02:24:28;;;;;;;18.98;3.05;;;;;;;10.53;68.39;99872.94;5074671;28;20067;-71
2021/03/13 02:27:07;;;;;;;20.02;3.35;;;;;;;10.50;68.49;99870.84;5014149;28;20053;-71
2021/03/13 02:29:46;;;;;;;16.42;2.70;;;;;;;10.73;67.91;99877.69;5013883;28;20547;-69
2021/03/13 02:32:24;;;;;;;20.25;3.05;;;;;;;10.95;67.10;99868.25;5013105;28;20056;-72
2021/03/13 02:35:04;;;;;;;20.20;3.03;;;;;;;10.52;68.10;99843.78;5012266;28;20061;-68
2021/03/13 02:37:39;;;;;;;20.70;3.28;;;;;;;10.70;67.46;99839.78;4998485;28;20057;-67
2021/03/13 02:40:10;;;;;;;20.00;3.08;;;;;;;10.68;67.29;99838.50;5027593;28;20164;-69
2021/03/13 02:42:53;;;;;;;24.17;3.03;;;;;;;10.60;67.93;99839.38;5010678;28;20053;-70
2021/03/13 02:45:23;;;;;;;14.48;2.80;;;;;;;10.81;67.10;99845.72;5010387;28;20141;-71
2021/03/13 02:48:16;;;;;;;13.65;2.03;;;;;;;10.57;67.64;99820.75;4952256;28;20055;-70
2021/03/13 02:51:04;;;;;;;16.30;3.67;;;;;;;10.75;67.65;99812.03;4955360;28;20514;-69
2021/03/13 02:58:01;;;;;;;20.17;2.55;;;;;;;10.57;68.01;99794.03;4951579;29;20078;-72
2021/03/13 03:00:34;;;;;;;19.98;3.17;;;;;;;10.53;67.71;99786.78;4973994;28;20060;-71
2021/03/13 03:03:03;;;;;;;18.05;2.47;;;;;;;10.65;67.55;99782.13;5018247;28;20057;-73
2021/03/13 03:05:56;;;;;;;22.98;3.45;;;;;;;10.68;67.53;99787.00;5084313;28;20044;-69
2021/03/13 03:08:25;;;;;;;22.60;3.03;;;;;;;10.82;67.08;99767.41;5053806;28;20399;-71
2021/03/13 03:10:54;;;;;;;18.48;2.97;;;;;;;10.77;67.16;99767.63;5071964;28;20052;-69
2021/03/13 03:13:30;;;;;;;18.20;3.22;;;;;;;10.45;68.19;99752.66;5069050;28;20049;-71
2021/03/13 03:16:26;;;;;;;18.77;2.95;;;;;;;10.40;67.96;99752.88;4971185;28;20047;-71
2021/03/13 03:18:59;;;;;;;20.45;2.88;;;;;;;10.54;67.76;99745.16;5053437;28;20071;-73
2021/03/13 03:21:35;;;;;;;18.50;3.00;;;;;;;10.63;67.43;99747.81;5053683;28;20051;-72
2021/03/13 03:28:49;;;;;;;18.02;3.38;;;;;;;10.61;67.27;99741.84;5071684;28;20040;-72
2021/03/13 03:31:23;;;;;;;21.95;3.45;;;;;;;10.77;66.90;99749.16;5038364;28;20041;-71
2021/03/13 03:34:02;;;;;;;19.33;3.17;;;;;;;10.86;66.45;99747.13;5055553;28;20052;-71
2021/03/13 03:36:29;;;;;;;20.90;2.85;;;;;;;10.96;66.06;99734.88;5053861;28;20053;-70
2021/03/13 03:43:44;;;;;;;18.38;3.40;;;;;;;10.67;67.04;99705.50;5087250;28;20044;-72
2021/03/13 03:46:17;;;;;;;18.88;3.30;;;;;;;10.65;67.07;99702.28;5037618;28;20399;-69
2021/03/13 03:48:49;;;;;;;15.50;3.30;;;;;;;10.59;67.28;99711.09;5021141;28;20044;-73
2021/03/13 03:51:24;;;;;;;18.33;3.33;;;;;;;10.63;66.97;99709.28;5022515;28;20051;-71
2021/03/13 03:53:59;;;;;;;16.70;2.85;;;;;;;10.54;67.43;99690.09;5051885;28;20045;-72
2021/03/13 04:00:57;;;;;;;16.27;2.55;;;;;;;10.73;67.33;99679.38;5075141;28;20052;-71
2021/03/13 04:03:31;;;;;;;18.40;2.20;;;;;;;10.77;67.52;99688.56;5058373;28;20040;-70
2021/03/13 04:06:00;;;;;;;14.95;2.72;;;;;;;10.61;68.04;99684.03;5059058;28;20509;-68
2021/03/13 04:08:27;;;;;;;18.60;3.45;;;;;;;10.65;68.01;99680.25;5059000;28;20044;-70
2021/03/13 04:15:32;;;;;;;17.40;2.47;;;;;;;10.44;68.92;99635.44;5076997;28;20041;-71
2021/03/13 04:17:59;;;;;;;17.92;2.92;;;;;;;10.64;68.80;99640.09;5076355;28;20052;-68
2021/03/13 04:20:28;;;;;;;14.90;2.58;;;;;;;10.58;68.87;99651.66;5058170;28;20389;-69
2021/03/13 04:22:59;;;;;;;16.80;2.65;;;;;;;10.53;69.13;99643.63;5055758;28;20060;-70
2021/03/13 04:25:33;;;;;;;18.48;2.47;;;;;;;10.66;68.93;99642.50;5074086;28;20063;-71
2021/03/13 04:28:00;;;;;;;15.38;2.97;;;;;;;10.70;68.57;99643.44;5074376;28;20067;-70
2021/03/13 04:30:33;;;;;;;20.58;2.80;;;;;;;10.74;68.16;99647.91;5074589;28;20037;-72
2021/03/13 04:33:15;;;;;;;15.32;2.63;;;;;;;10.72;68.03;99644.69;5072708;28;20045;-72
2021/03/13 04:35:51;;;;;;;18.05;2.63;;;;;;;10.75;68.04;99638.53;5037641;28;20048;-73
2021/03/13 04:38:33;;;;;;;16.85;2.55;;;;;;;10.68;69.02;99643.78;5059109;28;20056;-72
2021/03/13 04:41:02;;;;;;;18.35;3.58;;;;;;;10.70;69.48;99637.94;5056742;28;20047;-70
2021/03/13 04:43:30;;;;;;;13.55;2.80;;;;;;;10.82;69.58;99641.53;5056242;28;20072;-71
2021/03/13 04:46:00;;;;;;;15.32;2.83;;;;;;;10.84;69.15;99641.19;5037821;28;20056;-71
2021/03/13 04:48:35;;;;;;;21.05;3.28;;;;;;;10.62;70.36;99630.53;5074219;28;20053;-72
2021/03/13 04:51:08;;;;;;;16.50;3.58;;;;;;;10.88;69.72;99640.13;5057964;28;20119;-72
2021/03/13 04:53:35;;;;;;;19.27;3.63;;;;;;;10.67;70.05;99631.13;5074583;28;20048;-71
2021/03/13 04:56:02;;;;;;;17.02;2.88;;;;;;;10.80;69.82;99629.22;5056000;28;20052;-72
2021/03/13 04:58:30;;;;;;;20.33;3.63;;;;;;;10.62;69.98;99623.09;5056931;28;20483;-72
2021/03/13 05:01:18;;;;;;;18.08;3.28;;;;;;;10.74;69.94;99617.63;5059473;28;20057;-72
2021/03/13 05:03:50;;;;;;;19.60;3.58;;;;;;;10.68;70.28;99596.97;5074212;28;20059;-69
2021/03/13 05:06:20;;;;;;;19.20;3.28;;;;;;;10.66;70.22;99614.97;5074111;28;20386;-70
2021/03/13 05:08:47;;;;;;;16.20;2.60;;;;;;;10.52;70.58;99609.75;5056616;28;20051;-70
2021/03/13 05:11:14;;;;;;;14.43;3.03;;;;;;;10.55;71.12;99616.56;5073560;28;20044;-70
2021/03/13 05:13:44;;;;;;;17.90;2.60;;;;;;;10.33;71.53;99603.97;5089499;28;20051;-71
2021/03/13 05:16:23;;;;;;;15.38;2.95;;;;;;;10.43;71.55;99609.03;5074079;28;20048;-69
2021/03/13 05:18:50;;;;;;;15.18;2.67;;;;;;;10.55;71.09;99587.06;5089706;28;20554;-68
2021/03/13 05:21:17;;;;;;;12.55;2.45;;;;;;;10.36;71.94;99597.78;5074143;28;20044;-67
2021/03/13 05:23:50;;;;;;;13.27;2.28;;;;;;;10.47;71.44;99589.91;5074116;28;20043;-71
2021/03/13 05:26:19;;;;;;;11.00;1.77;;;;;;;10.20;72.32;99586.59;5073825;28;20478;-70
2021/03/13 05:28:55;;;;;;;14.60;2.35;;;;;;;10.28;72.60;99584.91;5057536;28;20506;-70
2021/03/13 05:31:23;;;;;;;14.43;2.05;;;;;;;10.41;72.18;99588.53;5055859;28;20056;-70
2021/03/13 05:34:00;;;;;;;14.65;2.03;;;;;;;10.62;71.53;99595.56;5073710;28;20054;-72
2021/03/13 05:36:27;;;;;;;11.52;2.30;;;;;;;10.68;71.33;99598.91;5073371;28;20467;-69
2021/03/13 05:38:58;;;;;;;18.83;2.83;;;;;;;10.79;70.91;99591.81;5073237;28;20052;-71
2021/03/13 05:41:28;;;;;;;;;;;;;;;10.70;71.86;99591.09;5056740;28;20055;-70
2021/03/13 05:43:55;;;;;;;17.42;3.17;;;;;;;10.43;73.63;99598.03;5074251;28;19920;-70
2021/03/13 05:46:36;;;;;;;18.73;3.00;;;;;;;10.33;74.34;99597.66;5091266;28;20040;-71
2021/03/13 05:49:06;;;;;;;16.33;3.33;;;;;;;10.45;73.81;99620.53;5076476;28;20528;-72
2021/03/13 05:51:38;;;;;;;17.73;3.53;;;;;;;10.46;74.19;99638.63;5092789;28;20063;-73
2021/03/13 05:54:06;;;;;;;18.55;3.10;;;;;;;9.79;77.72;99662.81;5070587;28;20205;-74
2021/03/13 05:56:51;;;;;;;18.90;3.03;;;;;;;9.63;79.94;99661.78;5078234;28;20063;-70
2021/03/13 05:59:21;;;;;;;15.98;3.03;;;;;;;9.90;79.56;99653.81;5075815;28;20051;-72
2021/03/13 06:01:48;;;;;;;14.40;2.08;;;;;;;9.65;79.84;99654.81;5092535;28;20067;-72
2021/03/13 06:04:25;;;;;;;14.88;2.85;;;;;;;9.60;79.80;99667.94;5093196;28;20056;-74
2021/03/13 06:06:53;;;;;;;23.25;3.53;;;;;;;9.53;80.35;99642.91;5075307;28;20044;-73
2021/03/13 06:09:20;;;;;;;7.85;1.88;;;;;;;9.33;77.89;99669.19;5058150;28;20051;-74
2021/03/13 06:11:47;;;;;;;7.40;1.30;;;;;;;9.52;76.77;99664.09;5058143;28;20047;-73
2021/03/13 06:14:14;;;;;;;12.65;1.80;;;;;;;9.41;76.43;99664.81;5092481;28;20063;-71
2021/03/13 06:16:42;;;;;;;9.50;1.77;;;;;;;9.66;76.81;99669.38;5072155;28;20051;-72
2021/03/13 06:19:13;;;;;;;13.52;1.58;;;;;;;9.52;76.46;99666.06;5092815;28;20051;-69
2021/03/13 06:21:41;;;;;;;8.50;1.55;;;;;;;9.25;76.94;99677.50;5089689;28;20487;-72
2021/03/13 06:24:08;;;;;;;9.88;1.40;;;;;;;9.05;76.57;99679.81;5073970;28;20052;-70
2021/03/13 06:27:00;;;;;;;9.15;1.20;;;;;;;9.03;75.70;99698.56;5075628;28;20056;-72
2021/03/13 06:29:32;;;;;;;9.35;1.50;;;;;;;9.13;74.02;99705.66;5058066;28;20054;-72
2021/03/13 06:32:13;;;;;;;6.15;1.48;;;;;;;9.05;72.95;99693.56;5092974;28;20052;-70
2021/03/13 06:35:26;;;;;;;7.10;1.30;;;;;;;8.83;72.38;99710.25;5076847;28;20056;-69
2021/03/13 06:37:58;;;;;;;7.38;1.25;;;;;;;8.73;71.84;99723.53;5074147;28;20056;-73
2021/03/13 06:40:27;;;;;;;5.47;1.25;;;;;;;8.75;70.53;99741.28;5073988;28;20048;-71
2021/03/13 06:42:58;;;;;;;7.22;1.23;;;;;;;8.80;71.58;99738.34;5074150;28;20479;-70
2021/03/13 06:45:28;;;;;;;6.38;0.93;;;;;;;8.68;71.14;99742.91;5092618;28;20520;-73
2021/03/13 06:48:30;;;;;;;7.07;0.95;;;;;;;8.65;71.79;99735.31;5077741;28;20505;-72
2021/03/13 06:51:20;;;;;;;9.43;1.38;;;;;;;8.82;70.90;99721.59;5091587;28;20040;-72
2021/03/13 06:54:10;;;;;;;8.10;1.58;;;;;;;8.62;70.02;99727.72;5073882;28;20397;-72
2021/03/13 07:00:43;;;;;;;9.40;1.60;;;;;;;8.64;71.05;99700.75;5091831;28;20386;-68
2021/03/13 07:03:13;;;;;;;12.15;1.50;;;;;;;8.91;69.93;99698.44;5092299;28;20036;-73
2021/03/13 07:05:45;;;;;;;13.27;2.47;;;;;;;9.08;68.98;99692.09;5076630;28;20506;-73
2021/03/13 07:08:31;;;;;;;14.43;2.20;;;;;;;9.21;68.42;99668.28;5073793;28;20600;-71
2021/03/13 07:11:08;;;;;;;10.50;1.60;;;;;;;9.23;68.09;99674.25;5074673;28;20044;-72
2021/03/13 07:13:55;;;;;;;9.73;1.98;;;;;;;9.25;68.12;99675.56;5092183;28;20056;-74
2021/03/13 07:16:38;;;;;;;7.43;1.45;;;;;;;9.03;68.64;99698.56;5057352;28;20412;-73
2021/03/13 07:19:12;;;;;;;5.80;1.42;;;;;;;9.30;68.97;99680.03;5092305;28;20044;-70
2021/03/13 07:21:46;;;;;;;7.45;1.63;;;;;;;9.17;68.85;99701.09;5092062;28;20398;-72
2021/03/13 07:24:13;;;;;;;10.40;1.80;;;;;;;9.02;68.88;99721.69;5091826;28;20063;-72
2021/03/13 07:31:36;;;;;;;8.85;1.38;;;;;;;8.92;69.07;99715.72;5091716;28;20036;-73
2021/03/13 07:34:05;;;;;;;10.25;1.98;;;;;;;9.22;68.30;99719.38;5094334;28;20158;-73
2021/03/13 07:36:37;;;;;;;10.25;1.83;;;;;;;8.91;68.60;99712.19;5078435;28;20043;-71
2021/03/13 07:39:17;;;;;;;5.70;1.67;;;;;;;9.02;68.31;99737.34;5077094;28;20499;-71
2021/03/13 07:46:07;;;;;;;9.93;1.55;;;;;;;9.04;68.50;99730.41;5096989;28;20164;-72
2021/03/13 07:48:41;;;;;;;12.68;2.10;;;;;;;9.15;68.53;99730.88;5080496;28;20055;-69
2021/03/13 07:51:09;;;;;;;10.35;1.92;;;;;;;9.00;67.90;99723.13;5078439;28;20466;-68
2021/03/13 07:53:45;;;;;;;9.15;1.58;;;;;;;9.09;67.49;99743.97;5094335;28;20055;-71
2021/03/13 07:56:13;;;;;;;11.27;2.22;;;;;;;9.30;67.32;99741.31;5078217;28;20505;-71
2021/03/13 07:58:43;;;;;;;10.43;2.20;;;;;;;9.17;66.38;99747.81;5078105;28;20554;-68
2021/03/13 08:01:46;;;;;;;11.85;2.10;;;;;;;8.74;68.09;99763.56;5095958;28;20565;-67
2021/03/13 08:04:38;;;;;;;14.38;3.13;;;;;;;9.22;67.76;99742.16;5111120;28;20506;-68
2021/03/13 08:07:26;;;;;;;13.15;2.38;;;;;;;9.00;67.19;99745.09;5032871;28;20125;-70
2021/03/13 08:09:55;;;;;;;11.75;2.17;;;;;;;9.14;67.30;99767.69;5032040;28;20153;-69
2021/03/13 08:17:09;;;;;;;15.80;2.33;;;;;;;9.09;67.17;99765.94;5094348;28;20052;-71
2021/03/13 08:19:38;;;;;;;12.18;2.30;;;;;;;9.44;66.50;99761.16;5076960;28;20091;-73
2021/03/13 08:22:10;;;;;;;14.10;2.50;;;;;;;9.26;66.54;99769.78;5094370;28;20218;-71
2021/03/13 08:24:48;;;;;;;24.35;3.38;;;;;;;9.14;66.67;99773.19;5095130;28;20055;-70
2021/03/13 08:31:41;;;;;;;18.42;2.58;;;;;;;9.05;67.18;99778.72;5076958;28;20044;-74
2021/03/13 08:34:11;;;;;;;22.55;3.95;;;;;;;9.30;66.83;99799.03;5077189;28;20052;-69
2021/03/13 08:36:47;;;;;;;19.88;2.70;;;;;;;9.22;66.64;99791.63;5094518;28;20055;-71
2021/03/13 08:39:34;;;;;;;22.48;3.15;;;;;;;9.24;66.29;99799.53;5094529;28;20367;-70
2021/03/13 08:42:07;;;;;;;15.68;3.10;;;;;;;9.55;66.04;99795.41;5094287;28;20075;-75
2021/03/13 08:44:36;;;;;;;16.75;2.85;;;;;;;9.28;65.90;99790.28;5094258;28;20048;-72
2021/03/13 08:47:04;;;;;;;24.92;2.83;;;;;;;9.53;65.77;99786.66;5059471;28;20482;-69
2021/03/13 08:49:31;;;;;;;14.68;2.92;;;;;;;9.73;64.75;99801.59;5093680;28;20459;-69
2021/03/13 08:52:10;;;;;;;15.77;2.90;;;;;;;9.55;65.63;99811.09;5094243;28;20494;-70
2021/03/13 08:54:45;;;;;;;18.00;3.53;;;;;;;9.68;65.98;99788.88;5089640;28;20048;-68
2021/03/13 08:57:25;;;;;;;16.45;2.22;;;;;;;9.79;65.70;99790.13;5075801;28;20048;-73
2021/03/13 08:59:58;;;;;;;18.85;3.03;;;;;;;9.55;66.01;99789.09;5077297;28;20051;-72
2021/03/13 09:02:37;;;;;;;13.20;3.15;;;;;;;9.75;65.36;99791.09;5094581;28;20067;-71
2021/03/13 09:05:10;;;;;;;13.43;2.55;;;;;;;9.56;66.19;99788.75;5060493;28;20063;-67
2021/03/13 09:07:41;;;;;;;12.52;2.08;;;;;;;9.47;67.48;99778.91;5076802;28;20052;-71
2021/03/13 09:10:09;;;;;;;;;;;;;;;9.60;67.58;99802.66;5110266;28;20051;-68
2021/03/13 09:12:39;;;;;;;12.15;2.53;;;;;;;9.59;67.87;99804.59;5083246;28;19929;-71
2021/03/13 09:16:16;;;;;;;13.90;2.03;;;;;;;9.79;68.11;99814.06;5085449;28;20032;-73
2021/03/13 09:18:56;;;;;;;11.70;2.38;;;;;;;9.53;69.09;99827.91;5094011;28;20048;-70
2021/03/13 09:22:02;;;;;;;13.07;3.00;;;;;;;9.30;69.66;99843.00;5076623;28;20490;-72
2021/03/13 09:24:33;;;;;;;10.98;2.05;;;;;;;9.03;70.42;99866.13;5059820;28;20066;-70
2021/03/13 09:27:03;;;;;;;13.43;2.50;;;;;;;8.99;72.02;99851.44;5093797;28;20056;-75
2021/03/13 09:34:18;;;;;;;9.85;1.80;;;;;;;8.93;67.59;99857.41;5093429;28;20048;-74
2021/03/13 09:37:10;;;;;;;12.88;2.00;;;;;;;9.21;67.24;99850.44;5109164;28;20044;-73
2021/03/13 09:39:37;;;;;;;15.15;2.17;;;;;;;9.18;65.66;99851.09;5092929;28;20048;-74
2021/03/13 09:42:12;;;;;;;10.85;1.92;;;;;;;9.17;66.07;99854.94;5092033;28;20056;-72
2021/03/13 09:44:51;;;;;;;11.10;1.90;;;;;;;9.19;65.93;99838.94;5073849;28;20055;-75
2021/03/13 09:47:32;;;;;;;10.73;2.10;;;;;;;9.30;65.54;99862.22;5058546;28;20051;-75
2021/03/13 09:50:08;;;;;;;15.05;2.40;;;;;;;9.66;64.29;99856.34;5093710;28;20047;-76
2021/03/13 09:52:50;;;;;;;17.02;2.83;;;;;;;9.68;64.44;99849.34;5092387;28;20063;-69
2021/03/13 09:55:24;;;;;;;16.50;2.60;;;;;;;9.77;63.60;99852.06;5093151;28;20525;-67
2021/03/13 09:57:59;;;;;;;28.60;3.30;;;;;;;9.73;61.66;99843.69;5040008;28;20083;-73
2021/03/13 10:00:41;;;;;;;17.20;2.70;;;;;;;9.96;62.16;99834.03;5088357;28;20052;-72
2021/03/13 10:03:11;;;;;;;18.88;3.08;;;;;;;10.02;60.22;99829.16;5092776;28;20052;-75
2021/03/13 10:05:39;;;;;;;14.98;2.72;;;;;;;10.14;59.37;99854.06;5091081;28;20055;-70
2021/03/13 10:08:17;;;;;;;17.20;3.00;;;;;;;10.09;57.70;99838.53;5092893;28;20040;-73
2021/03/13 10:10:54;;;;;;;21.17;4.07;;;;;;;10.00;57.45;99854.25;5057932;28;20505;-68
2021/03/13 10:13:23;;;;;;;18.17;3.30;;;;;;;10.15;57.10;99847.41;5090376;28;20044;-74
2021/03/13 10:15:50;;;;;;;15.77;2.75;;;;;;;10.23;56.17;99863.88;5093752;28;20067;-69
2021/03/13 10:18:24;;;;;;;20.50;4.00;;;;;;;10.23;54.62;99856.75;5075601;28;20393;-68
2021/03/13 10:21:14;;;;;;;18.98;4.10;;;;;;;10.14;54.91;99867.81;5089021;28;20047;-66
2021/03/13 10:23:41;;;;;;;18.17;3.13;;;;;;;10.20;53.41;99872.81;5092529;28;20070;-71
2021/03/13 10:26:17;;;;;;;19.08;3.45;;;;;;;10.13;52.76;99877.19;5073909;28;20048;-68
2021/03/13 10:33:06;;;;;;;17.52;3.08;;;;;;;10.17;53.26;99887.22;5089812;28;20055;-71
2021/03/13 10:35:49;;;;;;;14.85;3.58;;;;;;;10.37;51.83;99896.69;5091934;28;20062;-69
2021/03/13 10:38:20;;;;;;;17.08;3.20;;;;;;;10.28;51.40;99895.09;5091088;28;20048;-75
2021/03/13 10:40:50;;;;;;;24.80;3.88;;;;;;;10.34;50.62;99891.81;5091620;28;20047;-72
2021/03/13 10:43:33;;;;;;;20.67;3.63;;;;;;;10.32;50.68;99890.56;5057190;28;20055;-71
2021/03/13 10:46:12;;;;;;;22.15;3.38;;;;;;;10.26;51.11;99933.97;5071830;28;20656;-68
2021/03/13 10:48:51;;;;;;;23.60;3.88;;;;;;;9.98;53.03;99927.25;5091628;28;20048;-70
2021/03/13 10:51:43;;;;;;;19.27;3.65;;;;;;;9.85;53.31;99934.56;5090072;28;20426;-70
2021/03/13 10:54:30;;;;;;;25.77;3.80;;;;;;;9.85;53.74;99920.00;5090061;28;20131;-72
2021/03/13 10:57:06;;;;;;;19.88;3.10;;;;;;;9.80;53.35;99906.41;5074521;28;20055;-70
2021/03/13 11:04:12;;;;;;;21.77;3.63;;;;;;;10.34;53.62;99913.84;5091482;28;20052;-70
2021/03/13 11:06:41;;;;;;;18.67;3.72;;;;;;;10.49;52.53;99943.59;5074124;28;20500;-70
2021/03/13 11:09:11;;;;;;;18.67;4.30;;;;;;;10.33;52.33;99948.03;5091170;28;20059;-71
2021/03/13 11:11:48;;;;;;;22.52;4.15;;;;;;;10.41;53.22;99919.66;5091690;28;20048;-72
2021/03/13 11:14:16;;;;;;;12.27;2.80;;;;;;;10.38;52.56;99920.31;5090868;28;20071;-73
2021/03/13 11:16:46;;;;;;;15.60;2.88;;;;;;;10.23;53.31;99912.63;5090835;28;20059;-71
2021/03/13 11:19:14;;;;;;;16.85;3.83;;;;;;;10.31;52.85;99903.50;5092401;28;20060;-71
2021/03/13 11:21:46;;;;;;;19.45;3.35;;;;;;;10.24;53.10;99900.47;5092564;28;20048;-72
2021/03/13 11:24:13;;;;;;;20.40;4.22;;;;;;;10.33;53.92;99904.00;5092090;28;20390;-71
2021/03/13 11:26:43;;;;;;;15.45;3.03;;;;;;;10.44;52.75;99910.75;5071166;28;20059;-72
2021/03/13 11:29:13;;;;;;;23.77;3.88;;;;;;;10.28;54.59;99945.47;5074745;28;20047;-74
2021/03/13 11:31:40;;;;;;;15.00;3.72;;;;;;;10.03;59.11;99962.81;5090954;28;20055;-70
2021/03/13 11:34:13;;;;;;;21.02;3.85;;;;;;;9.74;61.32;99965.50;5074739;28;20052;-70
2021/03/13 11:36:40;;;;;;;15.05;3.35;;;;;;;9.39;62.81;99974.88;5091432;28;20060;-69
2021/03/13 11:39:10;;;;;;;13.95;2.88;;;;;;;8.99;60.72;99975.03;5091256;28;20048;-73
2021/03/13 11:41:42;;;;;;;17.08;3.08;;;;;;;8.92;62.04;99971.13;5073056;28;20059;-72
2021/03/13 11:44:12;;;;;;;14.05;3.08;;;;;;;9.23;62.52;99949.84;5073801;28;20044;-73
2021/03/13 11:46:42;;;;;;;13.80;3.08;;;;;;;9.40;60.11;99960.00;5072821;28;20063;-74
2021/03/13 11:49:12;;;;;;;13.35;2.55;;;;;;;9.37;59.21;99961.47;5056423;28;20052;-71
2021/03/13 11:51:45;;;;;;;16.48;2.67;;;;;;;9.35;59.67;99952.75;5074347;28;20055;-70
2021/03/13 11:54:18;;;;;;;13.00;2.75;;;;;;;9.38;57.69;99932.06;5040181;28;20055;-70
2021/03/13 11:56:45;;;;;;;13.57;2.53;;;;;;;9.50;57.10;99940.47;5089004;28;20052;-72
2021/03/13 11:59:12;;;;;;;10.43;2.55;;;;;;;9.72;56.21;99963.06;5091916;28;20055;-72
2021/03/13 12:01:39;;;;;;;11.10;2.05;;;;;;;9.80;53.34;99950.41;5073086;28;20483;-64
2021/03/13 12:04:06;;;;;;;14.38;2.22;;;;;;;9.79;54.05;99943.31;5090685;28;20059;-68
2021/03/13 12:06:35;;;;;;;13.30;2.30;;;;;;;9.87;52.69;99943.28;5091151;28;20048;-68
2021/03/13 12:09:02;;;;;;;16.88;2.58;;;;;;;10.01;53.51;99935.66;5072964;28;20040;-69
2021/03/13 12:11:29;;;;;;;16.92;2.97;;;;;;;10.20;52.70;99958.13;5090540;28;20052;-68
2021/03/13 12:14:02;;;;;;;17.38;3.20;;;;;;;10.38;53.60;99949.78;5090657;28;20048;-67
2021/03/13 12:16:32;;;;;;;18.67;5.53;;;;;;;10.51;54.62;99940.50;5072662;28;20063;-70
2021/03/13 12:19:08;;;;;;;18.02;3.45;;;;;;;10.92;54.68;99940.56;5090461;28;20482;-68
2021/03/13 12:21:39;;;;;;;23.67;4.05;;;;;;;11.18;54.62;99935.69;5094820;28;20047;-66
2021/03/13 12:24:07;;;;;;;26.48;3.95;;;;;;;11.22;54.75;99931.13;5071570;28;20486;-68
2021/03/13 12:26:37;;;;;;;21.00;2.85;;;;;;;10.96;55.80;99934.06;5094523;28;20556;-69
2021/03/13 12:29:05;;;;;;;15.32;3.53;;;;;;;11.19;55.24;99927.06;5075832;28;20048;-71
2021/03/13 12:31:32;;;;;;;18.40;3.42;;;;;;;11.43;53.63;99915.38;5094020;28;20052;-69
2021/03/13 12:34:02;;;;;;;;;;;;;;;10.93;52.97;99918.19;5077676;28;20127;-71
2021/03/13 12:36:32;;;;;;;;;;;;;;;10.96;52.48;99917.53;5077947;28;19927;-71
2021/03/13 12:39:15;;;;;;;21.27;3.65;;;;;;;11.10;52.58;99936.56;5094946;28;20254;-67
2021/03/13 12:41:46;;;;;;;17.85;4.50;;;;;;;10.97;50.39;99918.31;5093429;28;20553;-69
2021/03/13 12:44:15;;;;;;;14.25;3.13;;;;;;;11.06;48.94;99924.59;5094016;28;20071;-67
2021/03/13 12:46:43;;;;;;;19.73;3.78;;;;;;;11.34;48.81;99909.94;5075329;28;20056;-67
2021/03/13 12:49:16;;;;;;;24.38;3.40;;;;;;;11.44;48.38;99911.44;5093521;28;20067;-70
2021/03/13 12:51:43;;;;;;;16.15;3.47;;;;;;;11.34;46.82;99903.59;5058548;28;20558;-71
2021/03/13 12:54:10;;;;;;;18.13;3.85;;;;;;;11.66;46.32;99888.25;5094191;28;20048;-70
2021/03/13 12:56:37;;;;;;;14.80;4.38;;;;;;;12.09;44.12;99907.88;5075843;28;20048;-69
2021/03/13 12:59:04;;;;;;;13.88;3.05;;;;;;;11.61;43.83;99900.25;5093946;28;20048;-66
2021/03/13 13:01:31;;;;;;;13.93;2.95;;;;;;;11.61;43.86;99889.22;5075186;28;20052;-69
2021/03/13 13:04:01;;;;;;;16.70;2.93;;;;;;;11.76;43.53;99885.03;5094010;28;20447;-69
2021/03/13 13:06:31;;;;;;;15.88;3.25;;;;;;;11.99;42.25;99881.53;5058662;28;20290;-68
2021/03/13 13:08:58;;;;;;;11.93;3.07;;;;;;;11.71;42.95;99883.31;5076012;28;20486;-68
2021/03/13 13:11:25;;;;;;;15.40;2.72;;;;;;;11.67;42.41;99881.56;5075747;28;20048;-71
2021/03/13 13:13:58;;;;;;;11.65;2.53;;;;;;;11.64;42.56;99899.63;5076538;28;20056;-68
2021/03/13 13:16:24;;;;;;;13.30;3.08;;;;;;;11.39;42.89;99914.41;5058658;28;20059;-68